Terminal Aerodrome Forecast
Issued by NWS Lake Charles, LA

Home | Current Version | Previous Version | Text Only | Print | Product List | Glossary On
Versions: 1 2 3 4 5 6 7 8 9 10 11 12 13 14 15 16 17 18 19
000
FTUS44 KLCH 261340 AAA
TAFAEX
TAF AMD
KAEX 261340Z 2614/2712 VRB03KT 1/4SM FG VV002
      TEMPO 2614/2615 1SM BR OVC004
     FM261500 VRB05KT P6SM SCT050=

USA.gov is the U.S. government's official web portal to all federal, state and local government web resources and services.